sensor_id;sensor_type;location;lat;lon;timestamp;temperature;humidity
20534;DHT22;12929;56.822;26.056;2023-09-19T00:00:39;14.30;99.90
20534;DHT22;12929;56.822;26.056;2023-09-19T00:03:09;14.30;99.90
20534;DHT22;12929;56.822;26.056;2023-09-19T00:05:39;14.30;99.90
20534;DHT22;12929;56.822;26.056;2023-09-19T00:08:12;14.30;99.90
20534;DHT22;12929;56.822;26.056;2023-09-19T00:10:44;14.30;99.90
20534;DHT22;12929;56.822;26.056;2023-09-19T00:13:11;14.30;99.90
20534;DHT22;12929;56.822;26.056;2023-09-19T00:15:45;14.30;99.90
20534;DHT22;12929;56.822;26.056;2023-09-19T00:18:20;14.30;99.90
20534;DHT22;12929;56.822;26.056;2023-09-19T00:20:50;14.40;99.90
20534;DHT22;12929;56.822;26.056;2023-09-19T00:23:20;14.40;99.90
20534;DHT22;12929;56.822;26.056;2023-09-19T00:25:48;14.40;99.90
20534;DHT22;12929;56.822;26.056;2023-09-19T00:28:16;14.40;99.90
20534;DHT22;12929;56.822;26.056;2023-09-19T00:30:45;14.40;99.90
20534;DHT22;12929;56.822;26.056;2023-09-19T00:33:12;14.40;99.90
20534;DHT22;12929;56.822;26.056;2023-09-19T00:35:48;14.40;99.90
20534;DHT22;12929;56.822;26.056;2023-09-19T00:38:16;14.40;99.90
20534;DHT22;12929;56.822;26.056;2023-09-19T00:40:46;14.50;99.90
20534;DHT22;12929;56.822;26.056;2023-09-19T00:43:13;14.50;99.90
20534;DHT22;12929;56.822;26.056;2023-09-19T00:45:43;14.50;99.90
20534;DHT22;12929;56.822;26.056;2023-09-19T00:48:12;14.50;99.90
20534;DHT22;12929;56.822;26.056;2023-09-19T00:50:46;14.50;99.90
20534;DHT22;12929;56.822;26.056;2023-09-19T00:53:20;14.50;99.90
20534;DHT22;12929;56.822;26.056;2023-09-19T00:55:49;14.50;99.90
20534;DHT22;12929;56.822;26.056;2023-09-19T00:58:18;14.50;99.90
20534;DHT22;12929;56.822;26.056;2023-09-19T01:00:49;14.50;99.90
20534;DHT22;12929;56.822;26.056;2023-09-19T01:03:17;14.50;99.90
20534;DHT22;12929;56.822;26.056;2023-09-19T01:05:46;14.50;99.90
20534;DHT22;12929;56.822;26.056;2023-09-19T01:08:13;14.50;99.90
20534;DHT22;12929;56.822;26.056;2023-09-19T01:10:58;14.50;99.90
20534;DHT22;12929;56.822;26.056;2023-09-19T01:13:34;14.50;99.90
20534;DHT22;12929;56.822;26.056;2023-09-19T01:22:31;14.50;99.90
20534;DHT22;12929;56.822;26.056;2023-09-19T01:28:01;14.50;99.90
20534;DHT22;12929;56.822;26.056;2023-09-19T01:30:35;14.60;99.90
20534;DHT22;12929;56.822;26.056;2023-09-19T01:33:07;14.50;99.90
20534;DHT22;12929;56.822;26.056;2023-09-19T01:35:35;14.60;99.90
20534;DHT22;12929;56.822;26.056;2023-09-19T01:38:06;14.50;99.90
20534;DHT22;12929;56.822;26.056;2023-09-19T01:40:41;14.60;99.90
20534;DHT22;12929;56.822;26.056;2023-09-19T01:43:25;14.60;99.90
20534;DHT22;12929;56.822;26.056;2023-09-19T01:46:09;14.60;99.90
20534;DHT22;12929;56.822;26.056;2023-09-19T01:48:46;14.60;99.90
20534;DHT22;12929;56.822;26.056;2023-09-19T01:51:34;14.60;99.90
20534;DHT22;12929;56.822;26.056;2023-09-19T01:54:10;14.60;99.90
20534;DHT22;12929;56.822;26.056;2023-09-19T01:56:50;14.70;99.90
20534;DHT22;12929;56.822;26.056;2023-09-19T01:59:23;14.70;99.90
20534;DHT22;12929;56.822;26.056;2023-09-19T02:01:52;14.60;99.90
20534;DHT22;12929;56.822;26.056;2023-09-19T02:04:20;14.70;99.90
20534;DHT22;12929;56.822;26.056;2023-09-19T02:06:48;14.70;99.90
20534;DHT22;12929;56.822;26.056;2023-09-19T02:09:15;14.70;99.90
20534;DHT22;12929;56.822;26.056;2023-09-19T02:11:44;14.70;99.90
20534;DHT22;12929;56.822;26.056;2023-09-19T02:14:11;14.70;99.90
20534;DHT22;12929;56.822;26.056;2023-09-19T02:16:39;14.70;99.90
20534;DHT22;12929;56.822;26.056;2023-09-19T02:19:07;14.70;99.90
20534;DHT22;12929;56.822;26.056;2023-09-19T02:21:35;14.70;99.90
20534;DHT22;12929;56.822;26.056;2023-09-19T02:24:02;14.70;99.90
20534;DHT22;12929;56.822;26.056;2023-09-19T02:26:30;14.70;99.90
20534;DHT22;12929;56.822;26.056;2023-09-19T02:28:58;14.70;99.90
20534;DHT22;12929;56.822;26.056;2023-09-19T02:31:26;14.70;99.90
20534;DHT22;12929;56.822;26.056;2023-09-19T02:33:56;14.70;99.90
20534;DHT22;12929;56.822;26.056;2023-09-19T02:36:24;14.70;99.90
20534;DHT22;12929;56.822;26.056;2023-09-19T02:38:51;14.80;99.90
20534;DHT22;12929;56.822;26.056;2023-09-19T02:41:19;14.80;99.90
20534;DHT22;12929;56.822;26.056;2023-09-19T02:43:46;14.80;99.90
20534;DHT22;12929;56.822;26.056;2023-09-19T02:46:14;14.80;99.90
20534;DHT22;12929;56.822;26.056;2023-09-19T02:48:42;14.70;99.90
20534;DHT22;12929;56.822;26.056;2023-09-19T02:51:09;14.70;99.90
20534;DHT22;12929;56.822;26.056;2023-09-19T02:53:38;14.80;99.90
20534;DHT22;12929;56.822;26.056;2023-09-19T02:56:06;14.70;99.90
20534;DHT22;12929;56.822;26.056;2023-09-19T02:58:35;14.70;99.90
20534;DHT22;12929;56.822;26.056;2023-09-19T03:01:09;14.70;99.90
20534;DHT22;12929;56.822;26.056;2023-09-19T03:03:40;14.70;99.90
20534;DHT22;12929;56.822;26.056;2023-09-19T03:06:08;14.70;99.90
20534;DHT22;12929;56.822;26.056;2023-09-19T03:08:36;14.70;99.90
20534;DHT22;12929;56.822;26.056;2023-09-19T03:11:06;14.70;99.90
20534;DHT22;12929;56.822;26.056;2023-09-19T03:13:38;14.70;99.90
20534;DHT22;12929;56.822;26.056;2023-09-19T03:16:06;14.70;99.90
20534;DHT22;12929;56.822;26.056;2023-09-19T03:18:34;14.70;99.90
20534;DHT22;12929;56.822;26.056;2023-09-19T03:21:03;14.80;99.90
20534;DHT22;12929;56.822;26.056;2023-09-19T03:23:31;14.70;99.90
20534;DHT22;12929;56.822;26.056;2023-09-19T03:25:59;14.80;99.90
20534;DHT22;12929;56.822;26.056;2023-09-19T03:28:27;14.80;99.90
20534;DHT22;12929;56.822;26.056;2023-09-19T03:31:06;14.80;99.90
20534;DHT22;12929;56.822;26.056;2023-09-19T03:33:36;14.70;99.90
20534;DHT22;12929;56.822;26.056;2023-09-19T03:36:05;14.80;99.90
20534;DHT22;12929;56.822;26.056;2023-09-19T03:38:33;14.80;99.90
20534;DHT22;12929;56.822;26.056;2023-09-19T03:41:03;14.70;99.90
20534;DHT22;12929;56.822;26.056;2023-09-19T03:43:34;14.70;99.90
20534;DHT22;12929;56.822;26.056;2023-09-19T03:46:02;14.80;99.90
20534;DHT22;12929;56.822;26.056;2023-09-19T03:48:33;14.70;99.90
20534;DHT22;12929;56.822;26.056;2023-09-19T03:51:02;14.80;99.90
20534;DHT22;12929;56.822;26.056;2023-09-19T03:53:29;14.80;99.90
20534;DHT22;12929;56.822;26.056;2023-09-19T03:55:58;14.80;99.90
20534;DHT22;12929;56.822;26.056;2023-09-19T03:58:29;14.80;99.90
20534;DHT22;12929;56.822;26.056;2023-09-19T04:00:57;14.80;99.90
20534;DHT22;12929;56.822;26.056;2023-09-19T04:03:27;14.80;99.90
20534;DHT22;12929;56.822;26.056;2023-09-19T04:06:03;14.80;99.90
20534;DHT22;12929;56.822;26.056;2023-09-19T04:08:30;14.80;99.90
20534;DHT22;12929;56.822;26.056;2023-09-19T04:10:58;14.90;99.90
20534;DHT22;12929;56.822;26.056;2023-09-19T04:13:26;14.80;99.90
20534;DHT22;12929;56.822;26.056;2023-09-19T04:15:53;14.80;99.90
20534;DHT22;12929;56.822;26.056;2023-09-19T04:18:21;14.90;99.90
20534;DHT22;12929;56.822;26.056;2023-09-19T04:20:50;14.90;99.90
20534;DHT22;12929;56.822;26.056;2023-09-19T04:23:18;14.90;99.90
20534;DHT22;12929;56.822;26.056;2023-09-19T04:25:48;14.90;99.90
20534;DHT22;12929;56.822;26.056;2023-09-19T04:28:16;14.90;99.90
20534;DHT22;12929;56.822;26.056;2023-09-19T04:30:44;14.90;99.90
20534;DHT22;12929;56.822;26.056;2023-09-19T04:33:11;15.00;99.90
20534;DHT22;12929;56.822;26.056;2023-09-19T04:35:41;15.00;99.90
20534;DHT22;12929;56.822;26.056;2023-09-19T04:38:12;15.00;99.90
20534;DHT22;12929;56.822;26.056;2023-09-19T04:40:39;15.00;99.90
20534;DHT22;12929;56.822;26.056;2023-09-19T04:43:07;15.00;99.90
20534;DHT22;12929;56.822;26.056;2023-09-19T04:45:35;15.00;99.90
20534;DHT22;12929;56.822;26.056;2023-09-19T04:48:02;15.00;99.90
20534;DHT22;12929;56.822;26.056;2023-09-19T04:50:30;15.00;99.90
20534;DHT22;12929;56.822;26.056;2023-09-19T04:52:58;15.00;99.90
20534;DHT22;12929;56.822;26.056;2023-09-19T04:55:26;15.00;99.90
20534;DHT22;12929;56.822;26.056;2023-09-19T04:57:54;15.00;99.90
20534;DHT22;12929;56.822;26.056;2023-09-19T05:00:23;15.10;99.90
20534;DHT22;12929;56.822;26.056;2023-09-19T05:02:52;15.10;99.90
20534;DHT22;12929;56.822;26.056;2023-09-19T05:05:20;15.00;99.90
20534;DHT22;12929;56.822;26.056;2023-09-19T05:07:50;15.00;99.90
20534;DHT22;12929;56.822;26.056;2023-09-19T05:10:18;15.00;99.90
20534;DHT22;12929;56.822;26.056;2023-09-19T05:12:46;15.00;99.90
20534;DHT22;12929;56.822;26.056;2023-09-19T05:15:15;15.00;99.90
20534;DHT22;12929;56.822;26.056;2023-09-19T05:17:51;15.00;99.90
20534;DHT22;12929;56.822;26.056;2023-09-19T05:20:24;15.10;99.90
20534;DHT22;12929;56.822;26.056;2023-09-19T05:23:04;15.10;99.90
20534;DHT22;12929;56.822;26.056;2023-09-19T05:25:36;15.10;99.90
20534;DHT22;12929;56.822;26.056;2023-09-19T05:28:07;15.10;99.90
20534;DHT22;12929;56.822;26.056;2023-09-19T05:30:36;15.10;99.90
20534;DHT22;12929;56.822;26.056;2023-09-19T05:33:05;15.10;99.90
20534;DHT22;12929;56.822;26.056;2023-09-19T05:35:33;15.20;99.90
20534;DHT22;12929;56.822;26.056;2023-09-19T05:38:01;15.20;99.90
20534;DHT22;12929;56.822;26.056;2023-09-19T05:40:28;15.20;99.90
20534;DHT22;12929;56.822;26.056;2023-09-19T05:42:56;15.20;99.90
20534;DHT22;12929;56.822;26.056;2023-09-19T05:45:24;15.20;99.90
20534;DHT22;12929;56.822;26.056;2023-09-19T05:47:53;15.30;99.90
20534;DHT22;12929;56.822;26.056;2023-09-19T05:50:28;15.30;99.90
20534;DHT22;12929;56.822;26.056;2023-09-19T05:52:56;15.40;99.90
20534;DHT22;12929;56.822;26.056;2023-09-19T05:55:23;15.40;99.90
20534;DHT22;12929;56.822;26.056;2023-09-19T05:57:54;15.40;99.90
20534;DHT22;12929;56.822;26.056;2023-09-19T06:00:22;15.40;99.90
20534;DHT22;12929;56.822;26.056;2023-09-19T06:02:55;15.50;99.90
20534;DHT22;12929;56.822;26.056;2023-09-19T06:05:27;15.50;99.90
20534;DHT22;12929;56.822;26.056;2023-09-19T06:07:55;15.50;99.90
20534;DHT22;12929;56.822;26.056;2023-09-19T06:10:22;15.50;99.90
20534;DHT22;12929;56.822;26.056;2023-09-19T06:12:51;15.60;99.90
20534;DHT22;12929;56.822;26.056;2023-09-19T06:15:18;15.60;99.90
20534;DHT22;12929;56.822;26.056;2023-09-19T06:17:48;15.60;99.90
20534;DHT22;12929;56.822;26.056;2023-09-19T06:20:16;15.60;99.90
20534;DHT22;12929;56.822;26.056;2023-09-19T06:22:45;15.60;99.90
20534;DHT22;12929;56.822;26.056;2023-09-19T06:25:14;15.60;99.90
20534;DHT22;12929;56.822;26.056;2023-09-19T06:27:51;15.70;99.90
20534;DHT22;12929;56.822;26.056;2023-09-19T06:30:22;15.70;99.90
20534;DHT22;12929;56.822;26.056;2023-09-19T06:32:56;15.70;99.90
20534;DHT22;12929;56.822;26.056;2023-09-19T06:35:25;15.80;99.90
20534;DHT22;12929;56.822;26.056;2023-09-19T06:37:53;15.80;99.90
20534;DHT22;12929;56.822;26.056;2023-09-19T06:40:21;15.80;99.90
20534;DHT22;12929;56.822;26.056;2023-09-19T06:42:52;15.90;99.90
20534;DHT22;12929;56.822;26.056;2023-09-19T06:45:21;16.00;99.90
20534;DHT22;12929;56.822;26.056;2023-09-19T06:47:50;16.00;99.90
20534;DHT22;12929;56.822;26.056;2023-09-19T06:50:20;16.10;99.90
20534;DHT22;12929;56.822;26.056;2023-09-19T06:52:51;16.10;99.90
20534;DHT22;12929;56.822;26.056;2023-09-19T06:55:22;16.20;99.90
20534;DHT22;12929;56.822;26.056;2023-09-19T06:57:52;16.30;99.90
20534;DHT22;12929;56.822;26.056;2023-09-19T07:00:21;16.40;99.90
20534;DHT22;12929;56.822;26.056;2023-09-19T07:05:29;16.50;99.90
20534;DHT22;12929;56.822;26.056;2023-09-19T07:07:57;16.50;99.90
20534;DHT22;12929;56.822;26.056;2023-09-19T07:10:28;16.50;99.90
20534;DHT22;12929;56.822;26.056;2023-09-19T07:15:28;16.50;99.90
20534;DHT22;12929;56.822;26.056;2023-09-19T07:17:57;16.50;99.90
20534;DHT22;12929;56.822;26.056;2023-09-19T07:20:24;16.50;99.90
20534;DHT22;12929;56.822;26.056;2023-09-19T07:22:59;16.60;99.90
20534;DHT22;12929;56.822;26.056;2023-09-19T07:25:28;16.70;99.90
20534;DHT22;12929;56.822;26.056;2023-09-19T07:27:58;16.70;99.90
20534;DHT22;12929;56.822;26.056;2023-09-19T07:30:29;16.70;99.90
20534;DHT22;12929;56.822;26.056;2023-09-19T07:32:57;16.70;99.90
20534;DHT22;12929;56.822;26.056;2023-09-19T07:35:25;16.70;99.90
20534;DHT22;12929;56.822;26.056;2023-09-19T07:37:53;16.80;99.90
20534;DHT22;12929;56.822;26.056;2023-09-19T07:40:20;16.80;99.90
20534;DHT22;12929;56.822;26.056;2023-09-19T07:42:48;16.80;99.90
20534;DHT22;12929;56.822;26.056;2023-09-19T07:45:18;16.80;99.90
20534;DHT22;12929;56.822;26.056;2023-09-19T07:47:46;16.90;99.90
20534;DHT22;12929;56.822;26.056;2023-09-19T07:50:15;17.00;99.90
20534;DHT22;12929;56.822;26.056;2023-09-19T07:52:45;17.00;99.90
20534;DHT22;12929;56.822;26.056;2023-09-19T07:55:13;17.00;99.90
20534;DHT22;12929;56.822;26.056;2023-09-19T07:57:44;17.20;99.90
20534;DHT22;12929;56.822;26.056;2023-09-19T08:00:12;17.20;99.90
20534;DHT22;12929;56.822;26.056;2023-09-19T08:02:40;17.10;99.90
20534;DHT22;12929;56.822;26.056;2023-09-19T08:05:12;17.20;99.90
20534;DHT22;12929;56.822;26.056;2023-09-19T08:07:44;17.20;99.90
20534;DHT22;12929;56.822;26.056;2023-09-19T08:10:19;17.20;99.90
20534;DHT22;12929;56.822;26.056;2023-09-19T08:12:48;17.30;99.90
20534;DHT22;12929;56.822;26.056;2023-09-19T08:15:20;17.40;99.90
20534;DHT22;12929;56.822;26.056;2023-09-19T08:17:48;17.50;99.90
20534;DHT22;12929;56.822;26.056;2023-09-19T08:20:17;17.60;99.90
20534;DHT22;12929;56.822;26.056;2023-09-19T08:22:50;17.60;99.90
20534;DHT22;12929;56.822;26.056;2023-09-19T08:25:22;17.70;99.90
20534;DHT22;12929;56.822;26.056;2023-09-19T08:27:50;17.70;99.90
20534;DHT22;12929;56.822;26.056;2023-09-19T08:30:20;17.90;99.90
20534;DHT22;12929;56.822;26.056;2023-09-19T08:32:57;18.10;99.90
20534;DHT22;12929;56.822;26.056;2023-09-19T08:35:29;18.20;99.90
20534;DHT22;12929;56.822;26.056;2023-09-19T08:37:56;18.10;99.90
20534;DHT22;12929;56.822;26.056;2023-09-19T08:40:24;18.20;99.90
20534;DHT22;12929;56.822;26.056;2023-09-19T08:42:55;18.30;99.90
20534;DHT22;12929;56.822;26.056;2023-09-19T08:45:24;18.50;99.90
20534;DHT22;12929;56.822;26.056;2023-09-19T08:48:17;18.60;99.90
20534;DHT22;12929;56.822;26.056;2023-09-19T08:51:10;18.70;99.90
20534;DHT22;12929;56.822;26.056;2023-09-19T08:53:52;19.00;99.90
20534;DHT22;12929;56.822;26.056;2023-09-19T08:56:26;19.10;99.90
20534;DHT22;12929;56.822;26.056;2023-09-19T08:59:03;19.00;99.90
20534;DHT22;12929;56.822;26.056;2023-09-19T09:01:40;19.00;99.90
20534;DHT22;12929;56.822;26.056;2023-09-19T09:04:09;19.00;99.90
20534;DHT22;12929;56.822;26.056;2023-09-19T09:06:41;19.10;99.90
20534;DHT22;12929;56.822;26.056;2023-09-19T09:09:10;19.10;99.90
20534;DHT22;12929;56.822;26.056;2023-09-19T09:11:38;19.30;99.90
20534;DHT22;12929;56.822;26.056;2023-09-19T09:14:07;19.60;99.90
20534;DHT22;12929;56.822;26.056;2023-09-19T09:16:35;19.70;99.90
20534;DHT22;12929;56.822;26.056;2023-09-19T09:19:03;19.50;99.90
20534;DHT22;12929;56.822;26.056;2023-09-19T09:21:31;19.70;99.90
20534;DHT22;12929;56.822;26.056;2023-09-19T09:24:26;19.90;99.90
20534;DHT22;12929;56.822;26.056;2023-09-19T09:26:53;20.10;99.90
20534;DHT22;12929;56.822;26.056;2023-09-19T09:29:44;20.10;99.90
20534;DHT22;12929;56.822;26.056;2023-09-19T09:32:24;20.20;99.90
20534;DHT22;12929;56.822;26.056;2023-09-19T09:34:55;20.30;99.90
20534;DHT22;12929;56.822;26.056;2023-09-19T09:37:28;20.40;99.90
20534;DHT22;12929;56.822;26.056;2023-09-19T09:40:00;20.40;99.90
20534;DHT22;12929;56.822;26.056;2023-09-19T09:42:47;20.40;99.90
20534;DHT22;12929;56.822;26.056;2023-09-19T09:48:05;20.70;99.90
20534;DHT22;12929;56.822;26.056;2023-09-19T09:50:49;20.60;99.90
20534;DHT22;12929;56.822;26.056;2023-09-19T09:53:23;20.60;99.90
20534;DHT22;12929;56.822;26.056;2023-09-19T09:55:59;20.50;99.90
20534;DHT22;12929;56.822;26.056;2023-09-19T09:58:28;20.70;99.90
20534;DHT22;12929;56.822;26.056;2023-09-19T10:01:05;20.90;99.90
20534;DHT22;12929;56.822;26.056;2023-09-19T10:03:43;20.90;99.90
20534;DHT22;12929;56.822;26.056;2023-09-19T10:06:16;21.00;99.90
20534;DHT22;12929;56.822;26.056;2023-09-19T10:09:05;21.20;99.90
20534;DHT22;12929;56.822;26.056;2023-09-19T10:11:34;21.20;99.90
20534;DHT22;12929;56.822;26.056;2023-09-19T10:14:05;21.10;99.90
20534;DHT22;12929;56.822;26.056;2023-09-19T10:16:34;21.10;99.90
20534;DHT22;12929;56.822;26.056;2023-09-19T10:19:07;21.10;99.90
20534;DHT22;12929;56.822;26.056;2023-09-19T10:21:36;21.10;99.90
20534;DHT22;12929;56.822;26.056;2023-09-19T10:24:04;21.10;99.90
20534;DHT22;12929;56.822;26.056;2023-09-19T10:26:36;21.30;99.90
20534;DHT22;12929;56.822;26.056;2023-09-19T10:29:06;21.40;99.90
20534;DHT22;12929;56.822;26.056;2023-09-19T10:31:36;21.50;99.90
20534;DHT22;12929;56.822;26.056;2023-09-19T10:34:08;21.10;99.90
20534;DHT22;12929;56.822;26.056;2023-09-19T10:36:37;21.20;99.90
20534;DHT22;12929;56.822;26.056;2023-09-19T10:39:09;21.10;99.90
20534;DHT22;12929;56.822;26.056;2023-09-19T10:41:39;21.30;99.90
20534;DHT22;12929;56.822;26.056;2023-09-19T10:44:08;21.40;99.90
20534;DHT22;12929;56.822;26.056;2023-09-19T10:46:37;21.30;99.90
20534;DHT22;12929;56.822;26.056;2023-09-19T10:49:05;21.30;99.90
20534;DHT22;12929;56.822;26.056;2023-09-19T10:51:40;21.20;99.90
20534;DHT22;12929;56.822;26.056;2023-09-19T10:54:13;21.20;99.90
20534;DHT22;12929;56.822;26.056;2023-09-19T10:56:46;21.40;99.90
20534;DHT22;12929;56.822;26.056;2023-09-19T10:59:17;21.40;99.90
20534;DHT22;12929;56.822;26.056;2023-09-19T11:01:56;21.40;99.90
20534;DHT22;12929;56.822;26.056;2023-09-19T11:04:34;21.30;99.90
20534;DHT22;12929;56.822;26.056;2023-09-19T11:07:08;21.30;99.90
20534;DHT22;12929;56.822;26.056;2023-09-19T11:09:52;21.20;99.90
20534;DHT22;12929;56.822;26.056;2023-09-19T11:14:59;21.10;99.90
20534;DHT22;12929;56.822;26.056;2023-09-19T11:17:30;21.20;99.90
20534;DHT22;12929;56.822;26.056;2023-09-19T11:30:45;21.50;99.90
20534;DHT22;12929;56.822;26.056;2023-09-19T11:33:16;21.60;99.90
20534;DHT22;12929;56.822;26.056;2023-09-19T11:36:15;21.90;99.90
20534;DHT22;12929;56.822;26.056;2023-09-19T11:43:48;21.90;99.90
20534;DHT22;12929;56.822;26.056;2023-09-19T11:46:21;22.10;99.90
20534;DHT22;12929;56.822;26.056;2023-09-19T11:48:50;21.90;99.90
20534;DHT22;12929;56.822;26.056;2023-09-19T11:51:26;22.20;99.90
20534;DHT22;12929;56.822;26.056;2023-09-19T11:53:56;22.20;99.90
20534;DHT22;12929;56.822;26.056;2023-09-19T11:56:27;22.00;99.90
20534;DHT22;12929;56.822;26.056;2023-09-19T11:58:56;22.10;99.90
20534;DHT22;12929;56.822;26.056;2023-09-19T12:01:33;21.90;99.90
20534;DHT22;12929;56.822;26.056;2023-09-19T12:04:03;21.90;99.90
20534;DHT22;12929;56.822;26.056;2023-09-19T12:06:32;21.80;99.90
20534;DHT22;12929;56.822;26.056;2023-09-19T12:09:00;21.70;99.90
20534;DHT22;12929;56.822;26.056;2023-09-19T12:11:31;21.60;99.90
20534;DHT22;12929;56.822;26.056;2023-09-19T12:14:03;21.70;99.90
20534;DHT22;12929;56.822;26.056;2023-09-19T12:16:32;21.60;99.90
20534;DHT22;12929;56.822;26.056;2023-09-19T12:19:18;21.50;99.90
20534;DHT22;12929;56.822;26.056;2023-09-19T12:22:02;21.60;99.90
20534;DHT22;12929;56.822;26.056;2023-09-19T12:24:33;21.50;99.90
20534;DHT22;12929;56.822;26.056;2023-09-19T12:27:05;21.70;99.90
20534;DHT22;12929;56.822;26.056;2023-09-19T12:29:47;21.70;99.90
20534;DHT22;12929;56.822;26.056;2023-09-19T12:32:37;21.60;99.90
20534;DHT22;12929;56.822;26.056;2023-09-19T12:35:08;21.70;99.90
20534;DHT22;12929;56.822;26.056;2023-09-19T12:37:44;21.70;99.90
20534;DHT22;12929;56.822;26.056;2023-09-19T12:40:21;21.60;99.90
20534;DHT22;12929;56.822;26.056;2023-09-19T12:42:57;21.60;99.90
20534;DHT22;12929;56.822;26.056;2023-09-19T12:45:31;21.50;99.90
20534;DHT22;12929;56.822;26.056;2023-09-19T12:48:21;21.50;99.90
20534;DHT22;12929;56.822;26.056;2023-09-19T12:51:07;21.40;99.90
20534;DHT22;12929;56.822;26.056;2023-09-19T12:53:39;21.40;99.90
20534;DHT22;12929;56.822;26.056;2023-09-19T12:56:10;21.40;99.90
20534;DHT22;12929;56.822;26.056;2023-09-19T12:58:58;21.50;99.90
20534;DHT22;12929;56.822;26.056;2023-09-19T13:01:28;21.40;99.90
20534;DHT22;12929;56.822;26.056;2023-09-19T13:04:23;21.40;99.90
20534;DHT22;12929;56.822;26.056;2023-09-19T13:06:56;21.30;99.90
20534;DHT22;12929;56.822;26.056;2023-09-19T13:09:28;21.30;99.90
20534;DHT22;12929;56.822;26.056;2023-09-19T13:12:03;21.30;99.90
20534;DHT22;12929;56.822;26.056;2023-09-19T13:14:31;21.30;99.90
20534;DHT22;12929;56.822;26.056;2023-09-19T13:17:05;21.30;99.90
20534;DHT22;12929;56.822;26.056;2023-09-19T13:19:48;21.40;99.90
20534;DHT22;12929;56.822;26.056;2023-09-19T13:25:17;21.40;99.90
20534;DHT22;12929;56.822;26.056;2023-09-19T13:27:50;21.50;99.90
20534;DHT22;12929;56.822;26.056;2023-09-19T13:30:25;21.60;99.90
20534;DHT22;12929;56.822;26.056;2023-09-19T13:33:09;21.70;99.90
20534;DHT22;12929;56.822;26.056;2023-09-19T13:35:41;21.70;99.90
20534;DHT22;12929;56.822;26.056;2023-09-19T13:38:08;21.70;99.90
20534;DHT22;12929;56.822;26.056;2023-09-19T13:40:39;21.70;99.90
20534;DHT22;12929;56.822;26.056;2023-09-19T13:43:09;21.70;99.90
20534;DHT22;12929;56.822;26.056;2023-09-19T13:45:38;21.60;99.90
20534;DHT22;12929;56.822;26.056;2023-09-19T13:48:09;21.50;99.90
20534;DHT22;12929;56.822;26.056;2023-09-19T13:50:38;21.50;99.90
20534;DHT22;12929;56.822;26.056;2023-09-19T13:53:09;21.40;99.90
20534;DHT22;12929;56.822;26.056;2023-09-19T13:55:37;21.40;99.90
20534;DHT22;12929;56.822;26.056;2023-09-19T13:58:05;21.40;99.90
20534;DHT22;12929;56.822;26.056;2023-09-19T14:00:34;21.40;99.90
20534;DHT22;12929;56.822;26.056;2023-09-19T14:03:01;21.30;99.90
20534;DHT22;12929;56.822;26.056;2023-09-19T14:05:29;21.40;99.90
20534;DHT22;12929;56.822;26.056;2023-09-19T14:07:57;21.40;99.90
20534;DHT22;12929;56.822;26.056;2023-09-19T14:10:26;21.40;99.90
20534;DHT22;12929;56.822;26.056;2023-09-19T14:12:55;21.30;99.90
20534;DHT22;12929;56.822;26.056;2023-09-19T14:15:22;21.30;99.90
20534;DHT22;12929;56.822;26.056;2023-09-19T14:17:57;21.30;99.90
20534;DHT22;12929;56.822;26.056;2023-09-19T14:20:28;21.30;99.90
20534;DHT22;12929;56.822;26.056;2023-09-19T14:22:58;21.20;99.90
20534;DHT22;12929;56.822;26.056;2023-09-19T14:25:27;21.20;99.90
20534;DHT22;12929;56.822;26.056;2023-09-19T14:27:56;21.10;99.90
20534;DHT22;12929;56.822;26.056;2023-09-19T14:30:23;21.20;99.90
20534;DHT22;12929;56.822;26.056;2023-09-19T14:32:51;21.20;99.90
20534;DHT22;12929;56.822;26.056;2023-09-19T14:35:19;21.20;99.90
20534;DHT22;12929;56.822;26.056;2023-09-19T14:37:47;21.20;99.90
20534;DHT22;12929;56.822;26.056;2023-09-19T14:40:14;21.20;99.90
20534;DHT22;12929;56.822;26.056;2023-09-19T14:42:44;21.10;99.90
20534;DHT22;12929;56.822;26.056;2023-09-19T14:45:12;21.10;99.90
20534;DHT22;12929;56.822;26.056;2023-09-19T14:47:42;21.20;99.90
20534;DHT22;12929;56.822;26.056;2023-09-19T14:50:10;21.10;99.90
20534;DHT22;12929;56.822;26.056;2023-09-19T14:52:39;21.00;99.90
20534;DHT22;12929;56.822;26.056;2023-09-19T14:55:07;21.00;99.90
20534;DHT22;12929;56.822;26.056;2023-09-19T14:57:42;21.10;99.90
20534;DHT22;12929;56.822;26.056;2023-09-19T15:00:12;21.10;99.90
20534;DHT22;12929;56.822;26.056;2023-09-19T15:02:41;21.00;99.90
20534;DHT22;12929;56.822;26.056;2023-09-19T15:05:08;21.00;99.90
20534;DHT22;12929;56.822;26.056;2023-09-19T15:07:36;21.00;99.90
20534;DHT22;12929;56.822;26.056;2023-09-19T15:10:05;20.90;99.90
20534;DHT22;12929;56.822;26.056;2023-09-19T15:12:37;20.90;99.90
20534;DHT22;12929;56.822;26.056;2023-09-19T15:15:07;20.90;99.90
20534;DHT22;12929;56.822;26.056;2023-09-19T15:17:36;20.80;99.90
20534;DHT22;12929;56.822;26.056;2023-09-19T15:20:05;20.80;99.90
20534;DHT22;12929;56.822;26.056;2023-09-19T15:22:34;20.90;99.90
20534;DHT22;12929;56.822;26.056;2023-09-19T15:25:05;20.80;99.90
20534;DHT22;12929;56.822;26.056;2023-09-19T15:27:33;20.80;99.90
20534;DHT22;12929;56.822;26.056;2023-09-19T15:30:00;20.80;99.90
20534;DHT22;12929;56.822;26.056;2023-09-19T15:32:30;20.80;99.90
20534;DHT22;12929;56.822;26.056;2023-09-19T15:34:57;20.80;99.90
20534;DHT22;12929;56.822;26.056;2023-09-19T15:37:25;20.80;99.90
20534;DHT22;12929;56.822;26.056;2023-09-19T15:39:53;20.60;99.90
20534;DHT22;12929;56.822;26.056;2023-09-19T15:42:21;20.10;99.90
20534;DHT22;12929;56.822;26.056;2023-09-19T15:44:49;19.70;99.90
20534;DHT22;12929;56.822;26.056;2023-09-19T15:47:18;19.60;99.90
20534;DHT22;12929;56.822;26.056;2023-09-19T15:49:47;19.50;99.90
20534;DHT22;12929;56.822;26.056;2023-09-19T15:52:17;19.50;99.90
20534;DHT22;12929;56.822;26.056;2023-09-19T15:54:45;19.30;99.90
20534;DHT22;12929;56.822;26.056;2023-09-19T15:57:13;19.30;99.90
20534;DHT22;12929;56.822;26.056;2023-09-19T15:59:41;19.00;99.90
20534;DHT22;12929;56.822;26.056;2023-09-19T16:02:09;19.00;99.90
20534;DHT22;12929;56.822;26.056;2023-09-19T16:04:36;19.00;99.90
20534;DHT22;12929;56.822;26.056;2023-09-19T16:07:05;19.10;99.90
20534;DHT22;12929;56.822;26.056;2023-09-19T16:09:34;19.00;99.90
20534;DHT22;12929;56.822;26.056;2023-09-19T16:12:02;19.00;99.90
20534;DHT22;12929;56.822;26.056;2023-09-19T16:14:30;18.90;99.90
20534;DHT22;12929;56.822;26.056;2023-09-19T16:16:58;18.90;99.90